Terminal Aerodrome Forecast
Issued by NWS Cleveland, OH

Home | Current Version | Previous Version | Graphics & Text | Print | Product List | Glossary Off
Versions: 1 2 3 4 5 6 7 8 9 10 11 12 13 14 15 16 17 18 19 20 21

110
FTUS41 KCLE 280315 AAB
TAFCAK
TAF AMD
KCAK 280315Z 2803/2824 16006KT P6SM SCT012 BKN050
     FM280600 16008KT P6SM BKN150
     FM281300 16008KT 6SM -SHRA OVC050
     FM281500 18010KT 4SM -SHRA BR OVC025
     FM281900 18012G20KT P6SM VCSH OVC015=

USA.gov is the U.S. government's official web portal to all federal, state and local government web resources and services.